Airport Name : Bartolomeu Lisandro

Other Name : Campos

ICAO : SBCP

IATA : CAW

FAA :

Latitude : -21.698333

Longitude : -41.301669

Country : Brazil

Local Date and Time : 1/22/2018 1:58:00 PM

 

TAF (Terminal Aerodrome Forecast)

 

METAR (METeorological Aerodrome Report)

SBCP 221500Z 08016KT CAVOK 33/17 Q1011

SBCP 221400Z 07012KT CAVOK 32/19 Q1012

SBCP 221300Z 10012KT CAVOK 32/19 Q1012

SBCP 221200Z 08012KT CAVOK 31/22 Q1012